sensor_id;sensor_type;location;lat;lon;timestamp;P1;durP1;ratioP1;P2;durP2;ratioP2
40058;SDS011;25763;49.972;8.568;2023-05-23T00:02:00;78.18;;;73.88;;
40058;SDS011;25763;49.972;8.568;2023-05-23T00:04:25;77.60;;;72.82;;
40058;SDS011;25763;49.972;8.568;2023-05-23T00:06:51;63.47;;;59.92;;
40058;SDS011;25763;49.972;8.568;2023-05-23T00:09:17;57.95;;;54.75;;
40058;SDS011;25763;49.972;8.568;2023-05-23T00:11:43;65.43;;;61.63;;
40058;SDS011;25763;49.972;8.568;2023-05-23T00:14:12;60.95;;;57.60;;
40058;SDS011;25763;49.972;8.568;2023-05-23T00:16:42;56.30;;;52.92;;
40058;SDS011;25763;49.972;8.568;2023-05-23T00:19:11;51.95;;;48.65;;
40058;SDS011;25763;49.972;8.568;2023-05-23T00:21:39;46.47;;;43.88;;
40058;SDS011;25763;49.972;8.568;2023-05-23T00:24:05;56.22;;;52.90;;
40058;SDS011;25763;49.972;8.568;2023-05-23T00:26:31;47.70;;;45.10;;
40058;SDS011;25763;49.972;8.568;2023-05-23T00:28:56;43.72;;;41.15;;
40058;SDS011;25763;49.972;8.568;2023-05-23T00:31:22;50.08;;;47.15;;
40058;SDS011;25763;49.972;8.568;2023-05-23T00:33:47;49.40;;;46.20;;
40058;SDS011;25763;49.972;8.568;2023-05-23T00:36:13;51.75;;;48.60;;
40058;SDS011;25763;49.972;8.568;2023-05-23T00:38:38;51.38;;;48.60;;
40058;SDS011;25763;49.972;8.568;2023-05-23T00:41:04;42.72;;;40.30;;
40058;SDS011;25763;49.972;8.568;2023-05-23T00:43:30;48.08;;;45.03;;
40058;SDS011;25763;49.972;8.568;2023-05-23T00:45:55;55.65;;;52.13;;
40058;SDS011;25763;49.972;8.568;2023-05-23T00:48:21;52.60;;;49.70;;
40058;SDS011;25763;49.972;8.568;2023-05-23T00:50:48;53.28;;;50.35;;
40058;SDS011;25763;49.972;8.568;2023-05-23T00:53:14;47.67;;;45.03;;
40058;SDS011;25763;49.972;8.568;2023-05-23T00:55:41;55.65;;;52.63;;
40058;SDS011;25763;49.972;8.568;2023-05-23T00:58:06;53.67;;;50.72;;
40058;SDS011;25763;49.972;8.568;2023-05-23T01:00:32;58.22;;;54.92;;
40058;SDS011;25763;49.972;8.568;2023-05-23T01:02:58;47.70;;;45.05;;
40058;SDS011;25763;49.972;8.568;2023-05-23T01:05:25;53.70;;;50.47;;
40058;SDS011;25763;49.972;8.568;2023-05-23T01:07:50;49.53;;;46.88;;
40058;SDS011;25763;49.972;8.568;2023-05-23T01:10:20;52.78;;;49.55;;
40058;SDS011;25763;49.972;8.568;2023-05-23T01:12:55;55.15;;;52.10;;
40058;SDS011;25763;49.972;8.568;2023-05-23T01:16:27;54.28;;;51.30;;
40058;SDS011;25763;49.972;8.568;2023-05-23T01:18:17;49.58;;;46.95;;
40058;SDS011;25763;49.972;8.568;2023-05-23T01:20:55;50.17;;;47.45;;
40058;SDS011;25763;49.972;8.568;2023-05-23T01:23:35;58.03;;;54.83;;
40058;SDS011;25763;49.972;8.568;2023-05-23T01:26:30;50.88;;;48.15;;
40058;SDS011;25763;49.972;8.568;2023-05-23T01:29:12;49.78;;;47.13;;
40058;SDS011;25763;49.972;8.568;2023-05-23T01:31:42;48.40;;;45.55;;
40058;SDS011;25763;49.972;8.568;2023-05-23T01:34:10;51.58;;;48.72;;
40058;SDS011;25763;49.972;8.568;2023-05-23T01:36:39;49.25;;;46.33;;
40058;SDS011;25763;49.972;8.568;2023-05-23T01:39:06;55.80;;;50.58;;
40058;SDS011;25763;49.972;8.568;2023-05-23T01:41:32;52.80;;;49.60;;
40058;SDS011;25763;49.972;8.568;2023-05-23T01:43:57;56.78;;;53.63;;
40058;SDS011;25763;49.972;8.568;2023-05-23T01:46:22;55.78;;;52.55;;
40058;SDS011;25763;49.972;8.568;2023-05-23T01:48:49;55.53;;;52.47;;
40058;SDS011;25763;49.972;8.568;2023-05-23T01:51:15;57.92;;;54.75;;
40058;SDS011;25763;49.972;8.568;2023-05-23T01:53:40;55.20;;;52.20;;
40058;SDS011;25763;49.972;8.568;2023-05-23T01:56:08;55.08;;;52.15;;
40058;SDS011;25763;49.972;8.568;2023-05-23T01:58:33;55.58;;;52.63;;
40058;SDS011;25763;49.972;8.568;2023-05-23T02:00:59;55.78;;;52.85;;
40058;SDS011;25763;49.972;8.568;2023-05-23T02:03:24;56.40;;;53.50;;
40058;SDS011;25763;49.972;8.568;2023-05-23T02:05:50;57.35;;;54.25;;
40058;SDS011;25763;49.972;8.568;2023-05-23T02:08:15;58.47;;;55.30;;
40058;SDS011;25763;49.972;8.568;2023-05-23T02:10:41;57.83;;;54.75;;
40058;SDS011;25763;49.972;8.568;2023-05-23T02:13:06;59.58;;;56.33;;
40058;SDS011;25763;49.972;8.568;2023-05-23T02:15:31;62.13;;;58.67;;
40058;SDS011;25763;49.972;8.568;2023-05-23T02:17:57;59.95;;;56.65;;
40058;SDS011;25763;49.972;8.568;2023-05-23T02:20:22;60.00;;;56.40;;
40058;SDS011;25763;49.972;8.568;2023-05-23T02:22:47;58.08;;;54.90;;
40058;SDS011;25763;49.972;8.568;2023-05-23T02:25:13;56.45;;;53.42;;
40058;SDS011;25763;49.972;8.568;2023-05-23T02:27:39;59.42;;;55.67;;
40058;SDS011;25763;49.972;8.568;2023-05-23T02:30:05;53.42;;;50.55;;
40058;SDS011;25763;49.972;8.568;2023-05-23T02:32:31;57.10;;;54.05;;
40058;SDS011;25763;49.972;8.568;2023-05-23T02:34:56;57.33;;;54.20;;
40058;SDS011;25763;49.972;8.568;2023-05-23T02:37:22;51.20;;;48.50;;
40058;SDS011;25763;49.972;8.568;2023-05-23T02:39:47;48.92;;;46.10;;
40058;SDS011;25763;49.972;8.568;2023-05-23T02:42:12;49.10;;;46.53;;
40058;SDS011;25763;49.972;8.568;2023-05-23T02:44:38;52.42;;;49.60;;
40058;SDS011;25763;49.972;8.568;2023-05-23T02:47:03;50.63;;;47.80;;
40058;SDS011;25763;49.972;8.568;2023-05-23T02:49:29;50.13;;;47.35;;
40058;SDS011;25763;49.972;8.568;2023-05-23T02:51:54;45.47;;;43.03;;
40058;SDS011;25763;49.972;8.568;2023-05-23T02:54:19;41.58;;;39.10;;
40058;SDS011;25763;49.972;8.568;2023-05-23T02:56:45;40.22;;;37.90;;
40058;SDS011;25763;49.972;8.568;2023-05-23T02:59:10;37.10;;;35.05;;
40058;SDS011;25763;49.972;8.568;2023-05-23T03:01:36;40.63;;;38.28;;
40058;SDS011;25763;49.972;8.568;2023-05-23T03:04:01;35.45;;;33.53;;
40058;SDS011;25763;49.972;8.568;2023-05-23T03:06:27;38.70;;;36.50;;
40058;SDS011;25763;49.972;8.568;2023-05-23T03:08:52;38.40;;;36.25;;
40058;SDS011;25763;49.972;8.568;2023-05-23T03:11:18;39.78;;;37.42;;
40058;SDS011;25763;49.972;8.568;2023-05-23T03:13:43;38.63;;;36.50;;
40058;SDS011;25763;49.972;8.568;2023-05-23T03:16:08;34.40;;;32.47;;
40058;SDS011;25763;49.972;8.568;2023-05-23T03:18:35;36.38;;;34.30;;
40058;SDS011;25763;49.972;8.568;2023-05-23T03:21:01;29.67;;;27.98;;
40058;SDS011;25763;49.972;8.568;2023-05-23T03:23:26;35.55;;;33.30;;
40058;SDS011;25763;49.972;8.568;2023-05-23T03:25:51;31.20;;;29.40;;
40058;SDS011;25763;49.972;8.568;2023-05-23T03:28:17;26.90;;;25.38;;
40058;SDS011;25763;49.972;8.568;2023-05-23T03:30:42;28.38;;;26.83;;
40058;SDS011;25763;49.972;8.568;2023-05-23T03:33:07;25.60;;;24.20;;
40058;SDS011;25763;49.972;8.568;2023-05-23T03:35:33;27.90;;;26.35;;
40058;SDS011;25763;49.972;8.568;2023-05-23T03:37:58;30.05;;;28.42;;
40058;SDS011;25763;49.972;8.568;2023-05-23T03:40:23;24.75;;;23.42;;
40058;SDS011;25763;49.972;8.568;2023-05-23T03:43:00;23.75;;;22.35;;
40058;SDS011;25763;49.972;8.568;2023-05-23T03:45:26;21.27;;;19.98;;
40058;SDS011;25763;49.972;8.568;2023-05-23T03:47:51;22.02;;;20.27;;
40058;SDS011;25763;49.972;8.568;2023-05-23T03:50:17;21.38;;;20.08;;
40058;SDS011;25763;49.972;8.568;2023-05-23T03:52:42;21.60;;;20.38;;
40058;SDS011;25763;49.972;8.568;2023-05-23T03:55:08;21.52;;;20.02;;
40058;SDS011;25763;49.972;8.568;2023-05-23T03:57:35;21.38;;;20.08;;
40058;SDS011;25763;49.972;8.568;2023-05-23T04:00:01;19.77;;;18.60;;
40058;SDS011;25763;49.972;8.568;2023-05-23T04:02:30;19.92;;;18.73;;
40058;SDS011;25763;49.972;8.568;2023-05-23T04:04:55;18.98;;;17.83;;
40058;SDS011;25763;49.972;8.568;2023-05-23T04:07:21;18.40;;;17.20;;
40058;SDS011;25763;49.972;8.568;2023-05-23T04:09:46;19.08;;;17.80;;
40058;SDS011;25763;49.972;8.568;2023-05-23T04:12:12;17.73;;;16.55;;
40058;SDS011;25763;49.972;8.568;2023-05-23T04:14:37;15.68;;;14.73;;
40058;SDS011;25763;49.972;8.568;2023-05-23T04:17:03;17.55;;;16.35;;
40058;SDS011;25763;49.972;8.568;2023-05-23T04:19:29;17.95;;;16.63;;
40058;SDS011;25763;49.972;8.568;2023-05-23T04:21:55;18.13;;;16.70;;
40058;SDS011;25763;49.972;8.568;2023-05-23T04:24:20;17.17;;;16.13;;
40058;SDS011;25763;49.972;8.568;2023-05-23T04:26:46;19.55;;;18.23;;
40058;SDS011;25763;49.972;8.568;2023-05-23T04:29:11;18.30;;;17.13;;
40058;SDS011;25763;49.972;8.568;2023-05-23T04:31:36;21.42;;;20.00;;
40058;SDS011;25763;49.972;8.568;2023-05-23T04:34:02;26.40;;;24.60;;
40058;SDS011;25763;49.972;8.568;2023-05-23T04:36:27;29.88;;;28.23;;
40058;SDS011;25763;49.972;8.568;2023-05-23T04:38:54;30.88;;;28.65;;
40058;SDS011;25763;49.972;8.568;2023-05-23T04:41:19;28.58;;;27.00;;
40058;SDS011;25763;49.972;8.568;2023-05-23T04:43:47;30.67;;;28.98;;
40058;SDS011;25763;49.972;8.568;2023-05-23T04:46:18;32.08;;;30.35;;
40058;SDS011;25763;49.972;8.568;2023-05-23T04:48:46;38.75;;;36.55;;
40058;SDS011;25763;49.972;8.568;2023-05-23T04:51:12;38.00;;;35.85;;
40058;SDS011;25763;49.972;8.568;2023-05-23T04:53:38;36.42;;;34.30;;
40058;SDS011;25763;49.972;8.568;2023-05-23T04:56:05;37.95;;;35.78;;
40058;SDS011;25763;49.972;8.568;2023-05-23T04:58:32;36.00;;;34.00;;
40058;SDS011;25763;49.972;8.568;2023-05-23T05:00:58;37.45;;;35.10;;
40058;SDS011;25763;49.972;8.568;2023-05-23T05:03:23;38.00;;;35.75;;
40058;SDS011;25763;49.972;8.568;2023-05-23T05:05:50;39.03;;;36.70;;
40058;SDS011;25763;49.972;8.568;2023-05-23T05:08:15;34.67;;;32.67;;
40058;SDS011;25763;49.972;8.568;2023-05-23T05:10:44;35.72;;;33.78;;
40058;SDS011;25763;49.972;8.568;2023-05-23T05:13:09;36.95;;;34.85;;
40058;SDS011;25763;49.972;8.568;2023-05-23T05:15:35;34.03;;;32.10;;
40058;SDS011;25763;49.972;8.568;2023-05-23T05:18:00;34.00;;;32.13;;
40058;SDS011;25763;49.972;8.568;2023-05-23T05:20:25;34.85;;;32.83;;
40058;SDS011;25763;49.972;8.568;2023-05-23T05:22:57;32.95;;;31.08;;
40058;SDS011;25763;49.972;8.568;2023-05-23T05:25:22;28.85;;;27.30;;
40058;SDS011;25763;49.972;8.568;2023-05-23T05:27:48;35.97;;;34.10;;
40058;SDS011;25763;49.972;8.568;2023-05-23T05:30:15;35.17;;;33.13;;
40058;SDS011;25763;49.972;8.568;2023-05-23T05:32:40;41.15;;;38.83;;
40058;SDS011;25763;49.972;8.568;2023-05-23T05:35:06;44.08;;;41.67;;
40058;SDS011;25763;49.972;8.568;2023-05-23T05:37:32;51.63;;;48.92;;
40058;SDS011;25763;49.972;8.568;2023-05-23T05:39:57;55.65;;;52.55;;
40058;SDS011;25763;49.972;8.568;2023-05-23T05:42:23;55.95;;;53.05;;
40058;SDS011;25763;49.972;8.568;2023-05-23T05:44:48;61.42;;;58.20;;
40058;SDS011;25763;49.972;8.568;2023-05-23T05:47:14;68.93;;;65.38;;
40058;SDS011;25763;49.972;8.568;2023-05-23T05:49:39;69.60;;;66.05;;
40058;SDS011;25763;49.972;8.568;2023-05-23T05:52:06;56.88;;;53.15;;
40058;SDS011;25763;49.972;8.568;2023-05-23T05:54:32;57.13;;;54.17;;
40058;SDS011;25763;49.972;8.568;2023-05-23T05:56:57;57.80;;;54.83;;
40058;SDS011;25763;49.972;8.568;2023-05-23T05:59:23;66.85;;;63.47;;
40058;SDS011;25763;49.972;8.568;2023-05-23T06:01:48;72.60;;;68.95;;
40058;SDS011;25763;49.972;8.568;2023-05-23T06:04:15;62.72;;;59.53;;
40058;SDS011;25763;49.972;8.568;2023-05-23T06:06:41;66.20;;;62.53;;
40058;SDS011;25763;49.972;8.568;2023-05-23T06:09:06;88.32;;;83.90;;
40058;SDS011;25763;49.972;8.568;2023-05-23T06:11:32;60.95;;;57.83;;
40058;SDS011;25763;49.972;8.568;2023-05-23T06:13:57;40.95;;;38.55;;
40058;SDS011;25763;49.972;8.568;2023-05-23T06:16:23;36.28;;;34.30;;
40058;SDS011;25763;49.972;8.568;2023-05-23T06:18:48;47.42;;;44.92;;
40058;SDS011;25763;49.972;8.568;2023-05-23T06:21:13;66.28;;;62.90;;
40058;SDS011;25763;49.972;8.568;2023-05-23T06:23:39;67.60;;;64.05;;
40058;SDS011;25763;49.972;8.568;2023-05-23T06:26:04;47.95;;;45.45;;
40058;SDS011;25763;49.972;8.568;2023-05-23T06:28:34;63.15;;;59.90;;
40058;SDS011;25763;49.972;8.568;2023-05-23T06:31:00;51.08;;;48.45;;
40058;SDS011;25763;49.972;8.568;2023-05-23T06:33:25;28.60;;;27.10;;
40058;SDS011;25763;49.972;8.568;2023-05-23T06:35:50;38.35;;;36.38;;
40058;SDS011;25763;49.972;8.568;2023-05-23T06:38:16;40.20;;;38.10;;
40058;SDS011;25763;49.972;8.568;2023-05-23T06:40:41;50.33;;;47.63;;
40058;SDS011;25763;49.972;8.568;2023-05-23T06:43:06;49.22;;;46.72;;
40058;SDS011;25763;49.972;8.568;2023-05-23T06:45:32;29.25;;;27.67;;
40058;SDS011;25763;49.972;8.568;2023-05-23T06:47:59;50.13;;;47.58;;
40058;SDS011;25763;49.972;8.568;2023-05-23T06:50:25;33.67;;;31.90;;
40058;SDS011;25763;49.972;8.568;2023-05-23T06:52:50;49.35;;;46.83;;
40058;SDS011;25763;49.972;8.568;2023-05-23T06:55:15;48.55;;;45.85;;
40058;SDS011;25763;49.972;8.568;2023-05-23T06:57:43;36.95;;;35.00;;
40058;SDS011;25763;49.972;8.568;2023-05-23T07:00:09;35.13;;;33.28;;
40058;SDS011;25763;49.972;8.568;2023-05-23T07:02:37;25.55;;;24.05;;
40058;SDS011;25763;49.972;8.568;2023-05-23T07:05:03;36.92;;;35.00;;
40058;SDS011;25763;49.972;8.568;2023-05-23T07:07:28;44.58;;;42.28;;
40058;SDS011;25763;49.972;8.568;2023-05-23T07:09:54;52.10;;;49.33;;
40058;SDS011;25763;49.972;8.568;2023-05-23T07:12:19;46.33;;;43.95;;
40058;SDS011;25763;49.972;8.568;2023-05-23T07:14:44;46.85;;;44.35;;
40058;SDS011;25763;49.972;8.568;2023-05-23T07:17:10;30.85;;;28.90;;
40058;SDS011;25763;49.972;8.568;2023-05-23T07:19:36;29.98;;;28.40;;
40058;SDS011;25763;49.972;8.568;2023-05-23T07:22:01;22.98;;;21.67;;
40058;SDS011;25763;49.972;8.568;2023-05-23T07:24:27;27.38;;;25.77;;
40058;SDS011;25763;49.972;8.568;2023-05-23T07:26:52;20.92;;;19.73;;
40058;SDS011;25763;49.972;8.568;2023-05-23T07:29:17;22.95;;;21.65;;
40058;SDS011;25763;49.972;8.568;2023-05-23T07:31:43;25.02;;;23.63;;
40058;SDS011;25763;49.972;8.568;2023-05-23T07:34:08;24.33;;;23.02;;
40058;SDS011;25763;49.972;8.568;2023-05-23T07:36:33;25.95;;;24.52;;
40058;SDS011;25763;49.972;8.568;2023-05-23T07:39:01;21.65;;;20.45;;
40058;SDS011;25763;49.972;8.568;2023-05-23T07:41:27;16.77;;;15.77;;
40058;SDS011;25763;49.972;8.568;2023-05-23T07:43:53;21.58;;;20.38;;
40058;SDS011;25763;49.972;8.568;2023-05-23T07:46:18;17.50;;;16.50;;
40058;SDS011;25763;49.972;8.568;2023-05-23T07:48:44;17.55;;;16.52;;
40058;SDS011;25763;49.972;8.568;2023-05-23T07:51:09;20.60;;;19.30;;
40058;SDS011;25763;49.972;8.568;2023-05-23T07:53:34;18.65;;;17.55;;
40058;SDS011;25763;49.972;8.568;2023-05-23T07:56:04;19.92;;;18.83;;
40058;SDS011;25763;49.972;8.568;2023-05-23T07:58:30;19.95;;;18.85;;
40058;SDS011;25763;49.972;8.568;2023-05-23T08:00:55;19.00;;;17.90;;
40058;SDS011;25763;49.972;8.568;2023-05-23T08:03:22;19.25;;;18.15;;
40058;SDS011;25763;49.972;8.568;2023-05-23T08:05:47;20.60;;;19.40;;
40058;SDS011;25763;49.972;8.568;2023-05-23T08:08:13;19.08;;;17.85;;
40058;SDS011;25763;49.972;8.568;2023-05-23T08:10:38;20.20;;;19.10;;
40058;SDS011;25763;49.972;8.568;2023-05-23T08:13:04;22.23;;;21.02;;
40058;SDS011;25763;49.972;8.568;2023-05-23T08:15:31;21.45;;;20.25;;
40058;SDS011;25763;49.972;8.568;2023-05-23T08:17:57;19.92;;;18.80;;
40058;SDS011;25763;49.972;8.568;2023-05-23T08:20:24;19.08;;;18.00;;
40058;SDS011;25763;49.972;8.568;2023-05-23T08:22:56;18.42;;;17.42;;
40058;SDS011;25763;49.972;8.568;2023-05-23T08:25:22;22.08;;;20.88;;
40058;SDS011;25763;49.972;8.568;2023-05-23T08:27:49;20.80;;;19.65;;
40058;SDS011;25763;49.972;8.568;2023-05-23T08:30:14;20.73;;;19.60;;
40058;SDS011;25763;49.972;8.568;2023-05-23T08:32:40;20.35;;;19.23;;
40058;SDS011;25763;49.972;8.568;2023-05-23T08:35:05;21.00;;;19.83;;
40058;SDS011;25763;49.972;8.568;2023-05-23T08:37:31;20.55;;;19.45;;
40058;SDS011;25763;49.972;8.568;2023-05-23T08:39:56;19.42;;;18.33;;
40058;SDS011;25763;49.972;8.568;2023-05-23T08:42:22;19.02;;;18.02;;
40058;SDS011;25763;49.972;8.568;2023-05-23T08:44:47;18.88;;;17.67;;
40058;SDS011;25763;49.972;8.568;2023-05-23T08:47:12;15.90;;;15.00;;
40058;SDS011;25763;49.972;8.568;2023-05-23T08:49:41;19.02;;;17.92;;
40058;SDS011;25763;49.972;8.568;2023-05-23T08:52:09;13.68;;;12.88;;
40058;SDS011;25763;49.972;8.568;2023-05-23T08:54:36;13.85;;;13.05;;
40058;SDS011;25763;49.972;8.568;2023-05-23T08:57:02;15.68;;;14.77;;
40058;SDS011;25763;49.972;8.568;2023-05-23T08:59:27;16.55;;;15.65;;
40058;SDS011;25763;49.972;8.568;2023-05-23T09:01:54;16.77;;;15.77;;
40058;SDS011;25763;49.972;8.568;2023-05-23T09:04:21;18.17;;;17.08;;
40058;SDS011;25763;49.972;8.568;2023-05-23T09:06:46;15.45;;;14.55;;
40058;SDS011;25763;49.972;8.568;2023-05-23T09:09:11;15.60;;;14.70;;
40058;SDS011;25763;49.972;8.568;2023-05-23T09:11:37;12.23;;;11.52;;
40058;SDS011;25763;49.972;8.568;2023-05-23T09:14:03;14.38;;;13.57;;
40058;SDS011;25763;49.972;8.568;2023-05-23T09:16:32;13.10;;;12.30;;
40058;SDS011;25763;49.972;8.568;2023-05-23T09:18:58;16.23;;;15.27;;
40058;SDS011;25763;49.972;8.568;2023-05-23T09:21:34;17.55;;;16.55;;
40058;SDS011;25763;49.972;8.568;2023-05-23T09:23:59;25.02;;;23.67;;
40058;SDS011;25763;49.972;8.568;2023-05-23T09:26:26;19.17;;;18.15;;
40058;SDS011;25763;49.972;8.568;2023-05-23T09:28:52;18.50;;;17.48;;
40058;SDS011;25763;49.972;8.568;2023-05-23T09:31:24;18.27;;;17.17;;
40058;SDS011;25763;49.972;8.568;2023-05-23T09:33:50;16.73;;;15.73;;
40058;SDS011;25763;49.972;8.568;2023-05-23T09:36:16;15.63;;;14.73;;
40058;SDS011;25763;49.972;8.568;2023-05-23T09:38:43;15.35;;;14.45;;
40058;SDS011;25763;49.972;8.568;2023-05-23T09:41:10;18.05;;;17.05;;
40058;SDS011;25763;49.972;8.568;2023-05-23T09:43:39;16.25;;;15.35;;
40058;SDS011;25763;49.972;8.568;2023-05-23T09:46:14;15.23;;;14.32;;
40058;SDS011;25763;49.972;8.568;2023-05-23T09:48:39;16.63;;;15.70;;
40058;SDS011;25763;49.972;8.568;2023-05-23T09:53:35;14.63;;;13.73;;
40058;SDS011;25763;49.972;8.568;2023-05-23T09:56:01;17.33;;;16.33;;
40058;SDS011;25763;49.972;8.568;2023-05-23T09:58:28;14.70;;;13.90;;
40058;SDS011;25763;49.972;8.568;2023-05-23T10:00:56;13.40;;;12.60;;
40058;SDS011;25763;49.972;8.568;2023-05-23T10:06:00;15.63;;;14.73;;
40058;SDS011;25763;49.972;8.568;2023-05-23T10:08:44;14.40;;;13.57;;
40058;SDS011;25763;49.972;8.568;2023-05-23T10:13:44;11.93;;;11.18;;
40058;SDS011;25763;49.972;8.568;2023-05-23T10:18:44;12.50;;;11.75;;
40058;SDS011;25763;49.972;8.568;2023-05-23T10:21:18;15.05;;;14.18;;
40058;SDS011;25763;49.972;8.568;2023-05-23T10:23:46;22.48;;;21.27;;
40058;SDS011;25763;49.972;8.568;2023-05-23T10:26:12;20.13;;;19.02;;
40058;SDS011;25763;49.972;8.568;2023-05-23T10:28:38;19.73;;;18.63;;
40058;SDS011;25763;49.972;8.568;2023-05-23T10:31:05;16.30;;;15.40;;
40058;SDS011;25763;49.972;8.568;2023-05-23T10:33:33;15.90;;;15.00;;
40058;SDS011;25763;49.972;8.568;2023-05-23T10:36:04;19.35;;;18.27;;
40058;SDS011;25763;49.972;8.568;2023-05-23T10:38:41;14.55;;;13.65;;
40058;SDS011;25763;49.972;8.568;2023-05-23T10:41:28;24.90;;;23.50;;
40058;SDS011;25763;49.972;8.568;2023-05-23T10:44:08;26.27;;;24.88;;
40058;SDS011;25763;49.972;8.568;2023-05-23T10:49:39;22.27;;;21.05;;
40058;SDS011;25763;49.972;8.568;2023-05-23T10:52:05;19.30;;;17.48;;
40058;SDS011;25763;49.972;8.568;2023-05-23T10:57:20;14.20;;;13.40;;
40058;SDS011;25763;49.972;8.568;2023-05-23T10:59:50;15.18;;;14.27;;
40058;SDS011;25763;49.972;8.568;2023-05-23T11:02:26;16.77;;;15.77;;
40058;SDS011;25763;49.972;8.568;2023-05-23T11:08:07;14.73;;;13.88;;
40058;SDS011;25763;49.972;8.568;2023-05-23T11:10:59;17.45;;;16.23;;
40058;SDS011;25763;49.972;8.568;2023-05-23T11:13:24;38.90;;;36.85;;
40058;SDS011;25763;49.972;8.568;2023-05-23T11:15:50;39.33;;;37.25;;
40058;SDS011;25763;49.972;8.568;2023-05-23T11:18:22;43.65;;;41.42;;
40058;SDS011;25763;49.972;8.568;2023-05-23T11:20:53;49.53;;;47.03;;
40058;SDS011;25763;49.972;8.568;2023-05-23T11:23:19;53.17;;;50.47;;
40058;SDS011;25763;49.972;8.568;2023-05-23T11:25:49;43.95;;;41.70;;
40058;SDS011;25763;49.972;8.568;2023-05-23T11:28:16;47.42;;;45.00;;
40058;SDS011;25763;49.972;8.568;2023-05-23T11:30:42;48.25;;;45.47;;
40058;SDS011;25763;49.972;8.568;2023-05-23T11:33:11;52.15;;;49.35;;
40058;SDS011;25763;49.972;8.568;2023-05-23T11:35:47;46.53;;;44.17;;
40058;SDS011;25763;49.972;8.568;2023-05-23T11:38:14;49.53;;;47.03;;
40058;SDS011;25763;49.972;8.568;2023-05-23T11:40:41;52.38;;;49.70;;
40058;SDS011;25763;49.972;8.568;2023-05-23T11:43:09;53.72;;;51.03;;
40058;SDS011;25763;49.972;8.568;2023-05-23T11:45:36;47.80;;;45.25;;
40058;SDS011;25763;49.972;8.568;2023-05-23T11:48:08;50.78;;;48.17;;
40058;SDS011;25763;49.972;8.568;2023-05-23T11:50:42;47.58;;;45.17;;
40058;SDS011;25763;49.972;8.568;2023-05-23T11:53:18;50.92;;;48.33;;
40058;SDS011;25763;49.972;8.568;2023-05-23T11:55:49;37.42;;;35.47;;
40058;SDS011;25763;49.972;8.568;2023-05-23T11:58:27;46.42;;;44.08;;
40058;SDS011;25763;49.972;8.568;2023-05-23T12:01:00;27.50;;;25.70;;
40058;SDS011;25763;49.972;8.568;2023-05-23T12:03:27;48.20;;;45.75;;
40058;SDS011;25763;49.972;8.568;2023-05-23T12:05:56;27.92;;;26.45;;
40058;SDS011;25763;49.972;8.568;2023-05-23T12:08:22;47.70;;;45.30;;
40058;SDS011;25763;49.972;8.568;2023-05-23T12:10:50;53.80;;;51.10;;
40058;SDS011;25763;49.972;8.568;2023-05-23T12:13:16;48.20;;;45.80;;
40058;SDS011;25763;49.972;8.568;2023-05-23T12:15:42;47.20;;;44.80;;
40058;SDS011;25763;49.972;8.568;2023-05-23T12:18:08;51.78;;;49.17;;
40058;SDS011;25763;49.972;8.568;2023-05-23T12:20:33;47.92;;;45.53;;
40058;SDS011;25763;49.972;8.568;2023-05-23T12:23:03;38.08;;;36.08;;
40058;SDS011;25763;49.972;8.568;2023-05-23T12:25:28;37.78;;;35.78;;
40058;SDS011;25763;49.972;8.568;2023-05-23T12:28:01;58.10;;;55.20;;
40058;SDS011;25763;49.972;8.568;2023-05-23T12:30:27;52.75;;;50.10;;
40058;SDS011;25763;49.972;8.568;2023-05-23T12:32:52;66.35;;;63.05;;
40058;SDS011;25763;49.972;8.568;2023-05-23T12:35:18;52.50;;;49.85;;
40058;SDS011;25763;49.972;8.568;2023-05-23T12:37:43;85.07;;;80.88;;
40058;SDS011;25763;49.972;8.568;2023-05-23T12:40:13;67.75;;;64.32;;
40058;SDS011;25763;49.972;8.568;2023-05-23T12:42:49;66.30;;;63.00;;
40058;SDS011;25763;49.972;8.568;2023-05-23T12:45:17;59.33;;;56.35;;
40058;SDS011;25763;49.972;8.568;2023-05-23T12:47:43;37.58;;;35.65;;
40058;SDS011;25763;49.972;8.568;2023-05-23T12:50:08;54.65;;;51.92;;
40058;SDS011;25763;49.972;8.568;2023-05-23T12:52:35;28.48;;;26.98;;
40058;SDS011;25763;49.972;8.568;2023-05-23T12:55:02;32.70;;;31.00;;
40058;SDS011;25763;49.972;8.568;2023-05-23T12:57:27;36.20;;;34.10;;
40058;SDS011;25763;49.972;8.568;2023-05-23T12:59:52;49.15;;;46.65;;
40058;SDS011;25763;49.972;8.568;2023-05-23T13:02:18;44.47;;;42.17;;
40058;SDS011;25763;49.972;8.568;2023-05-23T13:04:43;50.20;;;47.63;;
40058;SDS011;25763;49.972;8.568;2023-05-23T13:07:09;57.58;;;54.30;;
40058;SDS011;25763;49.972;8.568;2023-05-23T13:09:34;46.90;;;44.53;;
40058;SDS011;25763;49.972;8.568;2023-05-23T13:11:59;46.20;;;43.88;;
40058;SDS011;25763;49.972;8.568;2023-05-23T13:14:25;47.53;;;45.08;;
40058;SDS011;25763;49.972;8.568;2023-05-23T13:16:50;40.20;;;38.15;;
40058;SDS011;25763;49.972;8.568;2023-05-23T13:19:16;54.05;;;51.33;;
40058;SDS011;25763;49.972;8.568;2023-05-23T13:21:41;47.75;;;45.35;;
40058;SDS011;25763;49.972;8.568;2023-05-23T13:24:07;44.60;;;42.33;;
40058;SDS011;25763;49.972;8.568;2023-05-23T13:26:33;51.88;;;49.25;;
40058;SDS011;25763;49.972;8.568;2023-05-23T13:28:59;51.55;;;48.92;;
40058;SDS011;25763;49.972;8.568;2023-05-23T13:31:24;44.22;;;41.92;;
40058;SDS011;25763;49.972;8.568;2023-05-23T13:33:49;43.97;;;41.75;;
40058;SDS011;25763;49.972;8.568;2023-05-23T13:36:15;43.22;;;41.03;;
40058;SDS011;25763;49.972;8.568;2023-05-23T13:38:40;40.10;;;38.00;;
40058;SDS011;25763;49.972;8.568;2023-05-23T13:41:06;43.30;;;41.10;;
40058;SDS011;25763;49.972;8.568;2023-05-23T13:43:31;49.80;;;47.30;;
40058;SDS011;25763;49.972;8.568;2023-05-23T13:45:57;42.80;;;40.60;;
40058;SDS011;25763;49.972;8.568;2023-05-23T13:48:22;38.42;;;36.42;;
40058;SDS011;25763;49.972;8.568;2023-05-23T13:50:47;41.03;;;38.92;;
40058;SDS011;25763;49.972;8.568;2023-05-23T13:53:13;52.80;;;50.13;;
40058;SDS011;25763;49.972;8.568;2023-05-23T13:55:40;39.05;;;37.05;;
40058;SDS011;25763;49.972;8.568;2023-05-23T13:58:07;48.85;;;46.40;;
40058;SDS011;25763;49.972;8.568;2023-05-23T14:00:32;41.10;;;38.90;;
40058;SDS011;25763;49.972;8.568;2023-05-23T14:02:57;41.22;;;38.88;;
40058;SDS011;25763;49.972;8.568;2023-05-23T14:05:23;46.53;;;44.15;;
40058;SDS011;25763;49.972;8.568;2023-05-23T14:07:48;43.72;;;41.53;;
40058;SDS011;25763;49.972;8.568;2023-05-23T14:10:13;38.53;;;36.53;;
40058;SDS011;25763;49.972;8.568;2023-05-23T14:12:41;41.47;;;39.35;;
40058;SDS011;25763;49.972;8.568;2023-05-23T14:15:06;36.90;;;35.00;;
40058;SDS011;25763;49.972;8.568;2023-05-23T14:17:32;40.05;;;37.90;;
40058;SDS011;25763;49.972;8.568;2023-05-23T14:19:57;39.35;;;37.33;;
40058;SDS011;25763;49.972;8.568;2023-05-23T14:22:23;45.20;;;42.90;;
40058;SDS011;25763;49.972;8.568;2023-05-23T14:24:48;44.40;;;42.10;;
40058;SDS011;25763;49.972;8.568;2023-05-23T14:27:13;43.42;;;41.20;;
40058;SDS011;25763;49.972;8.568;2023-05-23T14:29:39;39.80;;;37.70;;
40058;SDS011;25763;49.972;8.568;2023-05-23T14:32:04;46.85;;;43.75;;
40058;SDS011;25763;49.972;8.568;2023-05-23T14:34:30;49.70;;;45.95;;
40058;SDS011;25763;49.972;8.568;2023-05-23T14:36:56;34.50;;;32.70;;
40058;SDS011;25763;49.972;8.568;2023-05-23T14:39:21;34.95;;;32.95;;